createdAt,value
2022-08-25T00:00:08.204Z,50.07
2022-08-25T00:01:11.807Z,49.82
2022-08-25T00:02:12.135Z,49.98
2022-08-25T00:03:15.624Z,50.21
2022-08-25T00:04:18.019Z,50.09
2022-08-25T00:05:18.185Z,50.39
2022-08-25T00:06:18.401Z,50.39
2022-08-25T00:07:21.182Z,50.15
2022-08-25T00:08:23.998Z,50.05
2022-08-25T00:09:26.856Z,50.02
2022-08-25T00:10:29.675Z,50.26
2022-08-25T00:11:32.870Z,50.47
2022-08-25T00:12:35.785Z,50.43
2022-08-25T00:13:38.640Z,50.59
2022-08-25T00:14:41.443Z,50.45
2022-08-25T00:15:44.808Z,50.66
2022-08-25T00:16:44.483Z,50.51
2022-08-25T00:17:47.253Z,50.72
2022-08-25T00:18:50.012Z,50.97
2022-08-25T00:19:52.823Z,50.99
2022-08-25T00:20:55.601Z,51.32
2022-08-25T00:21:58.383Z,51.13
2022-08-25T00:23:01.185Z,50.95
2022-08-25T00:24:03.951Z,51.05
2022-08-25T00:25:06.727Z,51.34
2022-08-25T00:26:12.130Z,51.65
2022-08-25T00:27:11.419Z,52.25
2022-08-25T00:28:14.615Z,52.85
2022-08-25T00:29:17.422Z,53.38
2022-08-25T00:30:20.243Z,53.39
2022-08-25T00:31:23.174Z,53.56
2022-08-25T00:32:23.106Z,54.08
2022-08-25T00:33:25.878Z,54.15
2022-08-25T00:34:28.668Z,53.87
2022-08-25T00:35:31.472Z,53.67
2022-08-25T00:36:34.579Z,53.39
2022-08-25T00:37:37.361Z,53.56
2022-08-25T00:38:40.392Z,53.41
2022-08-25T00:39:43.257Z,53.35
2022-08-25T00:40:46.042Z,53.24
2022-08-25T00:41:48.783Z,52.98
2022-08-25T00:42:51.557Z,53.01
2022-08-25T00:43:54.360Z,53.37
2022-08-25T00:44:57.943Z,53.13
2022-08-25T00:45:57.381Z,53.26
2022-08-25T00:47:00.355Z,53.58
2022-08-25T00:48:03.743Z,53.33
2022-08-25T00:49:03.668Z,53.27
2022-08-25T00:50:07.606Z,53.39
2022-08-25T00:51:08.174Z,53.5
2022-08-25T00:52:10.960Z,53.73
2022-08-25T00:53:13.740Z,53.94
2022-08-25T00:54:16.510Z,53.77
2022-08-25T00:55:19.355Z,53.92
2022-08-25T00:56:22.623Z,54.33
2022-08-25T00:57:35.079Z,54.29
2022-08-25T00:58:27.580Z,54.37
2022-08-25T00:59:30.358Z,54.37
2022-08-25T01:00:33.132Z,54.27
2022-08-25T01:01:36.215Z,54.3
2022-08-25T01:02:39.469Z,54.46
2022-08-25T01:03:42.431Z,54.31
2022-08-25T01:04:49.383Z,54.31
2022-08-25T01:05:48.699Z,54.29
2022-08-25T01:06:51.886Z,54.31
2022-08-25T01:07:59.038Z,54.74
2022-08-25T01:08:55.809Z,54.71
2022-08-25T01:09:58.580Z,54.69
2022-08-25T01:11:01.377Z,54.91
2022-08-25T01:12:04.172Z,55.01
2022-08-25T01:13:16.763Z,54.98
2022-08-25T01:14:09.367Z,55.19
2022-08-25T01:15:12.150Z,55.3
2022-08-25T01:16:15.087Z,55.35
2022-08-25T01:17:18.076Z,55.23
2022-08-25T01:18:20.835Z,55.47
2022-08-25T01:19:23.634Z,55.17
2022-08-25T01:20:29.767Z,55.63
2022-08-25T01:21:29.863Z,55.25
2022-08-25T01:22:32.622Z,55.5
2022-08-25T01:23:35.388Z,55.76
2022-08-25T01:24:38.183Z,55.77
2022-08-25T01:25:40.928Z,55.28
2022-08-25T01:26:43.702Z,55.27
2022-08-25T01:27:46.474Z,54.6
2022-08-25T01:28:49.556Z,54.53
2022-08-25T01:29:52.338Z,54.56
2022-08-25T01:30:57.485Z,53.98
2022-08-25T01:31:55.815Z,54.11
2022-08-25T01:32:58.607Z,54.01
2022-08-25T01:34:01.367Z,53.7
2022-08-25T01:35:04.155Z,53.66
2022-08-25T01:36:06.905Z,53.33
2022-08-25T01:37:14.814Z,52.92
2022-08-25T01:38:10.628Z,52.87
2022-08-25T01:39:13.386Z,53
2022-08-25T01:40:17.735Z,52.92
2022-08-25T01:41:16.304Z,53.02
2022-08-25T01:42:19.064Z,53.99
2022-08-25T01:43:21.826Z,54.87
2022-08-25T01:44:24.611Z,55.28
2022-08-25T01:45:29.285Z,54.67
2022-08-25T01:46:30.665Z,54.4
2022-08-25T01:47:28.935Z,54.73
2022-08-25T01:48:31.690Z,54.34
2022-08-25T01:49:34.443Z,54.17
2022-08-25T01:50:37.207Z,54.11
2022-08-25T01:51:39.979Z,53.82
2022-08-25T01:52:42.798Z,53.51
2022-08-25T01:53:45.579Z,53.74
2022-08-25T01:54:48.375Z,53.57
2022-08-25T01:55:54.472Z,53.66
2022-08-25T01:56:53.808Z,53.15
2022-08-25T01:57:56.616Z,53.24
2022-08-25T01:58:59.387Z,53.08
2022-08-25T02:00:02.148Z,52.83
2022-08-25T02:01:16.278Z,52.95
2022-08-25T02:02:11.870Z,52.93
2022-08-25T02:03:27.048Z,52.93
2022-08-25T02:04:08.973Z,53.01
2022-08-25T02:05:09.018Z,52.85
2022-08-25T02:06:11.798Z,52.82
2022-08-25T02:07:14.733Z,52.42
2022-08-25T02:08:17.552Z,52.35
2022-08-25T02:09:20.335Z,52.39
2022-08-25T02:10:23.437Z,52.38
2022-08-25T02:11:26.224Z,52.3
2022-08-25T02:12:29.014Z,52.7
2022-08-25T02:13:32.773Z,52.73
2022-08-25T02:14:32.083Z,53.02
2022-08-25T02:15:34.887Z,53.31
2022-08-25T02:16:37.899Z,53.93
2022-08-25T02:17:40.924Z,54.05
2022-08-25T02:18:43.685Z,54.74
2022-08-25T02:19:46.499Z,54.96
2022-08-25T02:20:49.327Z,55.09
2022-08-25T02:21:52.096Z,55.12
2022-08-25T02:22:57.307Z,55.41
2022-08-25T02:23:56.642Z,55.77
2022-08-25T02:24:59.402Z,56.56
2022-08-25T02:26:02.211Z,56.52
2022-08-25T02:27:05.018Z,56.55
2022-08-25T02:28:07.814Z,56.96
2022-08-25T02:29:10.592Z,57.09
2022-08-25T02:30:13.373Z,57.24
2022-08-25T02:31:16.338Z,57.24
2022-08-25T02:32:19.324Z,57.14
2022-08-25T02:33:22.080Z,56.7
2022-08-25T02:34:24.848Z,57.21
2022-08-25T02:35:28.100Z,57.09
2022-08-25T02:36:30.871Z,56.84
2022-08-25T02:37:33.647Z,56.48
2022-08-25T02:38:36.434Z,56.1
2022-08-25T02:39:39.195Z,56.03
2022-08-25T02:40:41.963Z,55.65
2022-08-25T02:41:44.765Z,55.89
2022-08-25T02:42:47.546Z,56.22
2022-08-25T02:43:50.373Z,56.56
2022-08-25T02:44:53.153Z,56.92
2022-08-25T02:45:56.093Z,56.68
2022-08-25T02:46:59.147Z,56.94
2022-08-25T02:48:02.129Z,57.29
2022-08-25T02:49:05.300Z,56.83
2022-08-25T02:50:08.090Z,57.21
2022-08-25T02:51:10.874Z,57.14
2022-08-25T02:52:13.626Z,57.35
2022-08-25T02:53:16.398Z,57.39
2022-08-25T02:54:19.172Z,57.2
2022-08-25T02:55:21.964Z,56.8
2022-08-25T02:56:24.857Z,57.1
2022-08-25T02:57:27.636Z,57.2
2022-08-25T02:58:30.408Z,57.27
2022-08-25T02:59:33.177Z,57.83
2022-08-25T03:00:35.960Z,58.27
2022-08-25T03:01:39.877Z,58.22
2022-08-25T03:02:41.703Z,58.14
2022-08-25T03:03:44.879Z,57.75
2022-08-25T03:04:48.119Z,57.56
2022-08-25T03:05:51.086Z,57.88
2022-08-25T03:06:53.887Z,57.73
2022-08-25T03:07:58.013Z,58.44
2022-08-25T03:08:57.334Z,59.01
2022-08-25T03:10:00.156Z,58.89
2022-08-25T03:11:02.929Z,59.24
2022-08-25T03:12:05.713Z,59.76
2022-08-25T03:13:09.519Z,60.3
2022-08-25T03:14:08.826Z,59.89
2022-08-25T03:15:13.414Z,59.87
2022-08-25T03:16:13.182Z,60.03
2022-08-25T03:17:13.101Z,59.91
2022-08-25T03:18:17.337Z,60.1
2022-08-25T03:19:16.661Z,60.22
2022-08-25T03:20:19.444Z,60.03
2022-08-25T03:21:22.223Z,59.61
2022-08-25T03:22:27.295Z,59.31
2022-08-25T03:23:27.786Z,59.16
2022-08-25T03:24:30.589Z,59.16
2022-08-25T03:25:33.348Z,58.96
2022-08-25T03:26:36.101Z,59.16
2022-08-25T03:27:38.907Z,59.58
2022-08-25T03:28:41.704Z,59.75
2022-08-25T03:29:44.482Z,60.03
2022-08-25T03:30:56.148Z,59.57
2022-08-25T03:31:48.916Z,59.39
2022-08-25T03:32:51.864Z,59.48
2022-08-25T03:33:54.641Z,59.43
2022-08-25T03:34:57.399Z,59.4
2022-08-25T03:36:00.168Z,59.59
2022-08-25T03:37:02.928Z,59.5
2022-08-25T03:38:06.284Z,59.74
2022-08-25T03:39:06.892Z,59.38
2022-08-25T03:40:16.507Z,59.09
2022-08-25T03:41:09.785Z,58.8
2022-08-25T03:42:12.555Z,58.68
2022-08-25T03:43:15.338Z,58.68
2022-08-25T03:44:18.131Z,58.94
2022-08-25T03:45:20.917Z,58.81
2022-08-25T03:46:23.703Z,58.57
2022-08-25T03:47:26.466Z,58.44
2022-08-25T03:48:29.245Z,58.46
2022-08-25T03:49:33.539Z,58.21
2022-08-25T03:50:34.223Z,58.4
2022-08-25T03:51:36.970Z,58.24
2022-08-25T03:52:44.016Z,58.25
2022-08-25T03:53:39.834Z,58.33
2022-08-25T03:54:42.589Z,58.02
2022-08-25T03:55:45.366Z,57.82
2022-08-25T03:56:48.114Z,57.65
2022-08-25T03:57:50.888Z,57.5
2022-08-25T03:58:53.658Z,57.15
2022-08-25T03:59:56.438Z,56.92
2022-08-25T04:00:59.371Z,56.96
2022-08-25T04:02:02.636Z,56.85
2022-08-25T04:03:05.790Z,56.7
2022-08-25T04:04:08.570Z,56.75
2022-08-25T04:05:11.367Z,56.89
2022-08-25T04:06:14.490Z,57.24
2022-08-25T04:07:14.564Z,57.19
2022-08-25T04:08:19.408Z,57.44
2022-08-25T04:09:19.061Z,57.76
2022-08-25T04:10:21.840Z,57.83
2022-08-25T04:11:24.722Z,58.43
2022-08-25T04:12:27.494Z,58.16
2022-08-25T04:13:30.288Z,58.05
2022-08-25T04:14:33.062Z,59.11
2022-08-25T04:15:35.843Z,59.59
2022-08-25T04:16:38.757Z,59.88
2022-08-25T04:17:41.732Z,60.18
2022-08-25T04:18:44.547Z,60.43
2022-08-25T04:19:47.321Z,60.82
2022-08-25T04:20:50.121Z,60.55
2022-08-25T04:21:57.316Z,60.38
2022-08-25T04:22:53.283Z,60.6
2022-08-25T04:23:56.101Z,60.37
2022-08-25T04:24:59.003Z,60.33
2022-08-25T04:26:01.795Z,60.25
2022-08-25T04:27:04.579Z,60.02
2022-08-25T04:28:07.718Z,59.98
2022-08-25T04:29:10.601Z,60
2022-08-25T04:30:13.402Z,59.73
2022-08-25T04:31:16.391Z,59.77
2022-08-25T04:32:19.319Z,60.12
2022-08-25T04:33:22.082Z,60.06
2022-08-25T04:34:31.577Z,60.21
2022-08-25T04:35:29.996Z,60.06
2022-08-25T05:27:52.543Z,53.91
2022-08-25T05:28:55.355Z,54.87
2022-08-25T05:29:58.207Z,55.47
2022-08-25T05:31:01.028Z,55.98
2022-08-25T05:32:03.977Z,56.89
2022-08-25T05:33:07.107Z,57.38
2022-08-25T05:34:09.913Z,58.19
2022-08-25T05:35:12.737Z,58.74
2022-08-25T05:36:15.568Z,59.31
2022-08-25T05:37:18.410Z,59.62
2022-08-25T05:38:21.229Z,60.09
2022-08-25T05:39:27.105Z,60.33
2022-08-25T05:40:26.789Z,60.72
2022-08-25T05:41:26.567Z,60.86
2022-08-25T06:22:33.939Z,58.25
2022-08-25T06:23:36.787Z,58.19
2022-08-25T06:24:39.603Z,58.4
2022-08-25T06:25:42.408Z,58.05
2022-08-25T06:26:45.255Z,58.12
2022-08-25T06:27:48.029Z,58.39
2022-08-25T06:28:50.855Z,58.62
2022-08-25T06:29:56.180Z,58.78
2022-08-25T06:30:56.751Z,58.71
2022-08-25T06:32:00.074Z,58.89
2022-08-25T06:33:02.922Z,58.97
2022-08-25T06:34:05.721Z,58.73
2022-08-25T06:35:08.585Z,58.82
2022-08-25T06:36:11.411Z,59.08
2022-08-25T06:37:28.502Z,58.8
2022-08-25T06:38:51.422Z,58.68
2022-08-25T06:48:24.864Z,58.74
2022-08-25T06:48:25.388Z,58.72
2022-08-25T06:49:36.366Z,58.3
2022-08-25T06:50:29.126Z,58.31
2022-08-25T07:09:39.524Z,60.38
2022-08-25T07:10:48.547Z,54.74
2022-08-25T07:11:41.046Z,54.88
2022-08-25T07:12:47.136Z,55.27
2022-08-25T07:13:45.979Z,55.28
2022-08-25T07:15:19.167Z,54.73
2022-08-25T07:15:49.565Z,54.66
2022-08-25T07:16:50.658Z,54.83
2022-08-25T07:18:23.165Z,54.72
2022-08-25T07:21:57.836Z,55.11
2022-08-25T07:21:58.188Z,55.14
2022-08-25T07:23:01.624Z,55.29
2022-08-25T07:24:01.936Z,55.99
2022-08-25T07:25:03.400Z,56.5
2022-08-25T07:26:35.939Z,55.74
2022-08-25T07:27:06.627Z,56.64
2022-08-25T07:28:10.621Z,54.39
2022-08-25T07:29:09.960Z,54.3
2022-08-25T07:30:12.963Z,55.09
2022-08-25T07:31:15.871Z,53.52
2022-08-25T07:32:19.833Z,53.2
2022-08-25T07:33:20.619Z,53.13
2022-08-25T07:34:21.362Z,53.72
2022-08-25T07:35:26.526Z,53.07
2022-08-25T07:36:28.055Z,53.5
2022-08-25T07:51:28.209Z,50.92
2022-08-25T07:52:27.801Z,50.42
2022-08-25T07:53:30.605Z,49.78
2022-08-25T07:54:35.181Z,51.64
2022-08-25T07:55:33.692Z,49.62
2022-08-25T07:56:36.542Z,49.56
2022-08-25T07:57:39.533Z,50.36
2022-08-25T07:58:42.546Z,50.66
2022-08-25T07:59:44.390Z,50.06
2022-08-25T08:00:47.173Z,49.46
2022-08-25T08:01:50.319Z,49.94
2022-08-25T08:02:53.671Z,49.55
2022-08-25T08:03:54.449Z,50.55
2022-08-25T08:04:54.304Z,50.15
2022-08-25T08:05:57.103Z,50.13
2022-08-25T08:07:02.375Z,49.58
2022-08-25T08:08:01.792Z,49.6
2022-08-25T08:09:03.354Z,49.15
2022-08-25T08:11:03.052Z,48.07
2022-08-25T08:11:12.334Z,48
2022-08-25T08:12:11.775Z,48.07
2022-08-25T08:13:22.900Z,47.87
2022-08-25T08:14:20.464Z,47.72
2022-08-25T08:15:16.367Z,47.91
2022-08-25T08:16:19.941Z,47.1
2022-08-25T08:17:19.735Z,46.88
2022-08-25T08:18:22.617Z,46.73
2022-08-25T08:19:25.442Z,46.31
2022-08-25T08:20:25.471Z,46.32
2022-08-25T08:21:28.307Z,47.09
2022-08-25T08:22:31.103Z,46.7
2022-08-25T08:23:34.060Z,46.31
2022-08-25T08:24:56.110Z,46.94
2022-08-25T08:25:38.960Z,46.71
2022-08-25T08:26:59.286Z,47.91
2022-08-25T08:27:43.801Z,47.83
2022-08-25T08:28:43.167Z,47.09
2022-08-25T08:29:46.447Z,47.53
2022-08-25T08:30:54.118Z,46.88
2022-08-25T08:31:52.447Z,46.62
2022-08-25T08:33:13.140Z,48.51
2022-08-25T08:33:52.184Z,46.45
2022-08-25T08:34:55.695Z,45.83
2022-08-25T08:35:55.707Z,44.64
2022-08-25T08:36:55.039Z,44.12
2022-08-25T08:37:57.868Z,43.37
2022-08-25T08:39:01.579Z,43.63
2022-08-25T08:40:03.706Z,43.12
2022-08-25T08:41:03.657Z,44.02
2022-08-25T08:42:12.691Z,42.78
2022-08-25T08:43:18.909Z,43.21
2022-08-25T08:44:12.832Z,42.55
2022-08-25T08:45:12.389Z,42.43
2022-08-25T08:46:15.348Z,41.6
2022-08-25T08:47:18.319Z,42.34
2022-08-25T08:48:21.123Z,41.17
2022-08-25T08:49:28.789Z,40.76
2022-08-25T08:50:33.289Z,41.51
2022-08-25T08:51:33.470Z,41.96
2022-08-25T08:52:29.909Z,42.29
2022-08-25T08:53:34.729Z,42.74
2022-08-25T08:54:34.456Z,43.05
2022-08-25T08:55:37.314Z,42.77
2022-08-25T08:56:36.677Z,42.81
2022-08-25T08:57:39.699Z,42.56
2022-08-25T08:58:44.089Z,42.93
2022-08-25T08:59:44.095Z,43.26
2022-08-25T09:00:52.705Z,42.41
2022-08-25T09:01:54.645Z,42.3
2022-08-25T09:02:52.314Z,41.41
2022-08-25T09:03:55.603Z,40.76
2022-08-25T09:04:54.930Z,40.06
2022-08-25T09:05:57.751Z,39.97
2022-08-25T09:07:01.347Z,39.87
2022-08-25T09:08:00.680Z,39.68
2022-08-25T09:09:07.154Z,40.69
2022-08-25T09:10:07.151Z,39.27
2022-08-25T09:11:10.587Z,39.23
2022-08-25T09:12:13.442Z,39.54
2022-08-25T09:13:15.826Z,38.46
2022-08-25T09:14:15.145Z,38.95
2022-08-25T09:15:18.011Z,37.28
2022-08-25T09:16:34.734Z,37.77
2022-08-25T09:17:20.934Z,37.34
2022-08-25T09:18:23.723Z,37.37
2022-08-25T09:19:26.511Z,37.43
2022-08-25T09:20:29.519Z,37.34
2022-08-25T09:21:32.649Z,39.37
2022-08-25T09:22:36.994Z,37.63
2022-08-25T09:23:36.385Z,37.88
2022-08-25T09:24:41.220Z,37.96
2022-08-25T09:25:54.295Z,38.02
2022-08-25T09:26:44.395Z,37.3
2022-08-25T09:27:43.971Z,37.73
2022-08-25T09:28:51.494Z,38.13
2022-08-25T09:29:47.430Z,38.54
2022-08-25T09:30:50.385Z,38.71
2022-08-25T09:31:53.358Z,38.59
2022-08-25T09:32:56.919Z,38.3
2022-08-25T09:33:56.270Z,38.15
2022-08-25T09:34:59.086Z,38.09
2022-08-25T09:36:08.925Z,37.13
2022-08-25T09:37:05.240Z,37.59
2022-08-25T09:38:08.111Z,37.33
2022-08-25T09:39:10.930Z,37.37
2022-08-25T09:40:13.994Z,35.55
2022-08-25T09:41:19.707Z,36.56
2022-08-25T09:42:24.050Z,37.25
2022-08-25T09:43:19.990Z,36.6
2022-08-25T09:44:22.802Z,36.19
2022-08-25T09:45:25.601Z,36.34
2022-08-25T09:46:29.026Z,36.3
2022-08-25T09:47:28.820Z,35.9
2022-08-25T09:48:31.651Z,35.57
2022-08-25T09:49:34.043Z,35.47
2022-08-25T09:50:37.475Z,35.13
2022-08-25T09:51:43.417Z,35.15
2022-08-25T09:52:41.900Z,35.35
2022-08-25T09:53:41.969Z,35.59
2022-08-25T09:54:47.883Z,35.21
2022-08-25T09:55:47.206Z,34.73
2022-08-25T09:56:50.009Z,34.57
2022-08-25T09:57:53.421Z,34.71
2022-08-25T09:59:03.245Z,35.11
2022-08-25T09:59:59.400Z,34.62
2022-08-25T10:01:02.211Z,34.67
2022-08-25T10:02:05.367Z,34.87
2022-08-25T10:03:06.613Z,35.16
2022-08-25T10:04:20.794Z,35.25
2022-08-25T10:05:11.013Z,35.46
2022-08-25T10:06:13.558Z,35.69
2022-08-25T10:07:13.958Z,35.22
2022-08-25T10:08:24.950Z,35.01
2022-08-25T10:09:17.994Z,35.02
2022-08-25T10:10:20.955Z,34.81
2022-08-25T10:11:23.767Z,34.94
2022-08-25T10:12:28.312Z,34.28
2022-08-25T10:13:27.649Z,34.32
2022-08-25T10:14:30.734Z,35.08
2022-08-25T10:15:33.712Z,34.05
2022-08-25T10:16:37.174Z,34.16
2022-08-25T10:17:36.791Z,33.95
2022-08-25T10:18:38.440Z,33.72
2022-08-25T10:19:41.265Z,33.89
2022-08-25T10:20:45.160Z,33.62
2022-08-25T10:21:45.630Z,35.55
2022-08-25T10:22:50.711Z,34.27
2022-08-25T10:23:47.745Z,33.06
2022-08-25T10:24:50.526Z,31.92
2022-08-25T10:26:03.487Z,33.7
2022-08-25T10:26:54.382Z,32.31
2022-08-25T10:27:57.171Z,31.85
2022-08-25T10:29:00.117Z,32.19
2022-08-25T10:30:03.684Z,32.63
2022-08-25T10:31:03.405Z,32.75
2022-08-25T10:32:12.436Z,32.72
2022-08-25T10:33:08.981Z,32.36
2022-08-25T10:34:08.776Z,32.95
2022-08-25T10:35:12.404Z,33.15
2022-08-25T10:36:21.298Z,32.96
2022-08-25T10:37:17.889Z,32.89
2022-08-25T10:38:22.078Z,32.63
2022-08-25T10:39:36.581Z,33.01
2022-08-25T10:40:26.550Z,32.69
2022-08-25T10:41:26.313Z,32.75
2022-08-25T10:42:29.344Z,32.19
2022-08-25T10:43:32.177Z,32.72
2022-08-25T10:44:34.979Z,32.11
2022-08-25T10:45:37.860Z,32.07
2022-08-25T10:46:43.330Z,32.63
2022-08-25T10:47:42.886Z,32.82
2022-08-25T10:48:45.831Z,32.76
2022-08-25T10:49:50.274Z,31.65
2022-08-25T10:50:49.636Z,31.89
2022-08-25T10:51:51.563Z,32.15
2022-08-25T10:52:51.004Z,32.54
2022-08-25T10:53:56.363Z,32.01
2022-08-25T10:54:56.354Z,32.03
2022-08-25T10:55:59.195Z,32.17
2022-08-25T10:57:02.238Z,32.12
2022-08-25T10:58:06.013Z,32.09
2022-08-25T10:59:06.824Z,31.71
2022-08-25T11:00:08.624Z,32.68
2022-08-25T11:01:11.732Z,31.76
2022-08-25T11:02:14.706Z,32.65
2022-08-25T11:03:18.021Z,31.75
2022-08-25T11:04:25.848Z,31.64
2022-08-25T11:05:25.045Z,31.55
2022-08-25T11:06:24.659Z,31.24
2022-08-25T11:07:27.469Z,31.71
2022-08-25T11:08:30.282Z,31.58
2022-08-25T11:09:36.657Z,31.36
2022-08-25T11:10:34.608Z,31.28
2022-08-25T11:11:37.763Z,31.66
2022-08-25T11:12:43.283Z,31.47
2022-08-25T11:13:45.482Z,31.56
2022-08-25T11:14:42.738Z,31.24
2022-08-25T11:16:16.929Z,31.57
2022-08-25T11:16:48.880Z,31.18
2022-08-25T11:17:50.682Z,31.05
2022-08-25T11:18:50.996Z,32.56
2022-08-25T11:19:50.303Z,32.6
2022-08-25T11:20:53.230Z,32.54
2022-08-25T11:21:56.660Z,32.22
2022-08-25T11:22:59.533Z,32.36
2022-08-25T11:24:02.630Z,32.18
2022-08-25T11:25:04.299Z,32.62
2022-08-25T11:26:03.682Z,32.47
2022-08-25T11:27:06.525Z,32.51
2022-08-25T11:28:11.124Z,31.59
2022-08-25T11:29:12.341Z,33.35
2022-08-25T11:30:13.295Z,32.24
2022-08-25T11:31:13.449Z,32.46
2022-08-25T11:32:12.986Z,31.99
2022-08-25T11:33:15.765Z,31.42
2022-08-25T11:34:19.800Z,32.01
2022-08-25T11:35:19.211Z,31.5
2022-08-25T11:36:29.822Z,31.97
2022-08-25T11:37:22.292Z,32.3
2022-08-25T11:38:27.187Z,32.56
2022-08-25T11:39:34.875Z,32.32
2022-08-25T11:40:31.055Z,32.6
2022-08-25T11:41:34.014Z,32.72
2022-08-25T11:42:36.823Z,32.01
2022-08-25T11:43:40.828Z,32.11
2022-08-25T11:44:55.028Z,31.84
2022-08-25T11:45:41.078Z,32.3
2022-08-25T11:46:42.842Z,32.72
2022-08-25T11:47:46.090Z,30.98
2022-08-25T11:48:48.927Z,31.11
2022-08-25T11:49:51.719Z,31.43
2022-08-25T11:50:54.608Z,31.36
2022-08-25T11:52:03.714Z,31.18
2022-08-25T11:53:00.859Z,31.38
2022-08-25T11:54:00.192Z,31.2
2022-08-25T11:55:05.590Z,31.36
2022-08-25T11:56:04.923Z,31.39
2022-08-25T11:57:07.717Z,31.28
2022-08-25T11:58:10.928Z,31.55
2022-08-25T11:59:15.757Z,32.66
2022-08-25T12:00:15.769Z,32.46
2022-08-25T12:01:20.483Z,31.55
2022-08-25T12:02:19.963Z,31.92
2022-08-25T12:03:22.758Z,31.52
2022-08-25T12:04:29.717Z,31.58
2022-08-25T12:05:27.067Z,32.07
2022-08-25T12:06:30.095Z,31.82
2022-08-25T12:07:32.880Z,32.01
2022-08-25T12:08:35.654Z,32.22
2022-08-25T12:09:38.438Z,32.58
2022-08-25T12:10:41.198Z,33.14
2022-08-25T12:11:43.985Z,31.98
2022-08-25T12:12:46.802Z,31.74
2022-08-25T12:13:50.994Z,31.49
2022-08-25T12:14:50.317Z,31.48
2022-08-25T12:15:53.377Z,31.27
2022-08-25T12:16:56.629Z,31.68
2022-08-25T12:17:56.267Z,32.33
2022-08-25T12:18:59.742Z,32.38
2022-08-25T12:19:59.056Z,32.26
2022-08-25T12:21:03.406Z,32.19
2022-08-25T12:22:04.210Z,32.29
2022-08-25T12:23:03.732Z,31.66
2022-08-25T12:24:06.710Z,32.08
2022-08-25T12:25:09.484Z,31.99
2022-08-25T12:26:12.275Z,32.4
2022-08-25T12:27:15.083Z,32.33
2022-08-25T12:28:19.663Z,32.2
2022-08-25T12:29:22.519Z,32.34
2022-08-25T12:30:21.869Z,32.81
2022-08-25T12:31:24.714Z,32.61
2022-08-25T12:32:27.870Z,33.04
2022-08-25T12:33:30.659Z,34.45
2022-08-25T12:34:33.479Z,33.63
2022-08-25T12:35:36.704Z,33.85
2022-08-25T12:36:36.959Z,33.8
2022-08-25T12:37:39.757Z,32.96
2022-08-25T12:38:49.685Z,32.72
2022-08-25T12:39:44.868Z,32.52
2022-08-25T12:40:47.683Z,32.47
2022-08-25T12:41:52.302Z,33.39
2022-08-25T12:42:51.824Z,32.64
2022-08-25T12:43:54.762Z,32.21
2022-08-25T12:44:57.949Z,32.57
2022-08-25T12:46:02.700Z,32.69
2022-08-25T12:47:04.627Z,32.1
2022-08-25T12:48:06.318Z,31.64
2022-08-25T12:49:09.135Z,30.95
2022-08-25T12:50:11.922Z,31.31
2022-08-25T12:51:14.708Z,31.69
2022-08-25T12:52:17.506Z,33.55
2022-08-25T12:53:20.746Z,31.14
2022-08-25T12:54:23.743Z,31.16
2022-08-25T12:55:26.553Z,31.48
2022-08-25T12:56:30.103Z,32.58
2022-08-25T12:57:30.086Z,31.99
2022-08-25T12:59:00.019Z,31.78
2022-08-25T12:59:32.896Z,31.53
2022-08-25T13:00:35.673Z,31.78
2022-08-25T13:01:38.922Z,31.5
2022-08-25T13:02:39.050Z,32.47
2022-08-25T13:04:41.916Z,31.48
2022-08-25T13:05:43.005Z,30.79
2022-08-25T13:06:45.823Z,32.27
2022-08-25T13:07:48.589Z,32.34
2022-08-25T13:08:51.868Z,31.12
2022-08-25T13:09:54.669Z,30.59
2022-08-25T13:10:57.485Z,30.8
2022-08-25T13:12:01.221Z,32.31
2022-08-25T13:13:02.648Z,30.7
2022-08-25T13:14:03.791Z,30.65
2022-08-25T13:15:06.778Z,30.77
2022-08-25T13:16:09.768Z,30.66
2022-08-25T13:17:10.383Z,30.98
2022-08-25T13:18:13.645Z,30.74
2022-08-25T13:19:18.658Z,30.24
2022-08-25T13:20:19.296Z,30.45
2022-08-25T13:21:20.314Z,30.37
2022-08-25T13:22:19.634Z,30.17
2022-08-25T13:23:22.787Z,30.32
2022-08-25T13:24:26.083Z,30.59
2022-08-25T14:29:41.415Z,28.91
2022-08-25T14:30:37.396Z,29.24
2022-08-25T14:31:40.521Z,29.42
2022-08-25T14:32:44.232Z,29.38
2022-08-25T14:33:50.335Z,28.45
2022-08-25T14:34:49.744Z,29.14
2022-08-25T14:35:53.939Z,28.55
2022-08-25T14:36:54.490Z,29.4
2022-08-25T14:37:57.333Z,29.21
2022-08-25T14:39:01.735Z,29.34
2022-08-25T14:40:01.558Z,29.8
2022-08-25T14:41:02.150Z,29.55
2022-08-25T14:42:01.846Z,28.94
2022-08-25T14:43:10.171Z,29.22
2022-08-25T14:44:06.947Z,29.26
2022-08-25T14:45:10.272Z,29.57
2022-08-25T14:46:15.773Z,29.64
2022-08-25T14:47:15.411Z,29.62
2022-08-25T14:48:18.304Z,29.89
2022-08-25T14:49:25.351Z,29.69
2022-08-25T14:50:21.213Z,30
2022-08-25T14:51:24.969Z,29.9
2022-08-25T14:52:24.342Z,29.96
2022-08-25T14:53:28.849Z,29.98
2022-08-25T14:54:29.328Z,30.09
2022-08-25T14:55:32.552Z,30.1
2022-08-25T14:56:31.903Z,30.14
2022-08-25T14:57:34.713Z,30.42
2022-08-25T14:58:54.032Z,30.16
2022-08-25T14:59:43.548Z,30.3
2022-08-25T15:00:44.935Z,30.35
2022-08-25T15:01:43.765Z,30.65
2022-08-25T15:02:46.927Z,30.53
2022-08-25T15:03:49.808Z,30.52
2022-08-25T15:04:52.395Z,30.7
2022-08-25T15:05:51.982Z,30.6
2022-08-25T15:06:54.844Z,31.3
2022-08-25T15:07:58.868Z,31.77
2022-08-25T15:08:58.550Z,31.59
2022-08-25T15:10:01.354Z,31.46
2022-08-25T15:11:09.120Z,30.7
2022-08-25T15:12:06.357Z,30.81
2022-08-25T15:13:09.674Z,31.23
2022-08-25T15:14:10.923Z,30.82
2022-08-25T15:15:13.388Z,30.86
2022-08-25T15:16:12.988Z,31.05
2022-08-25T15:17:15.926Z,31
2022-08-25T15:18:20.522Z,31.32
2022-08-25T15:19:19.938Z,31.48
2022-08-25T15:20:22.891Z,31.23
2022-08-25T15:21:25.882Z,31.62
2022-08-25T15:22:28.702Z,31.59
2022-08-25T15:23:30.312Z,31.87
2022-08-25T15:24:38.947Z,31.75
2022-08-25T15:25:35.400Z,31.76
2022-08-25T15:26:39.077Z,30.81
2022-08-25T15:27:39.615Z,30.67
2022-08-25T15:28:42.611Z,31.18
2022-08-25T15:29:44.759Z,30.67
2022-08-25T15:30:46.099Z,30.3
2022-08-25T15:31:46.878Z,30.26
2022-08-25T15:32:48.949Z,30.53
2022-08-25T15:33:51.482Z,31.14
2022-08-25T15:34:50.235Z,29.85
2022-08-25T15:35:53.075Z,29.78
2022-08-25T15:36:53.638Z,30.12
2022-08-25T15:37:56.514Z,31.08
2022-08-25T15:39:00.084Z,31.13
2022-08-25T15:39:59.730Z,31.19
2022-08-25T15:41:03.285Z,31.2
2022-08-25T15:42:06.129Z,30.79
2022-08-25T15:43:08.993Z,30.35
2022-08-25T15:44:10.278Z,30.44
2022-08-25T15:45:09.657Z,30.25
2022-08-25T15:46:12.459Z,30.39
2022-08-25T15:47:17.138Z,30.32
2022-08-25T15:48:16.532Z,30.31
2022-08-25T15:49:23.720Z,30.22
2022-08-25T15:50:25.989Z,30.33
2022-08-25T15:51:22.389Z,30.32
2022-08-25T15:52:47.504Z,30.49
2022-08-25T15:53:27.287Z,30.28
2022-08-25T15:54:30.649Z,30.56
2022-08-25T15:55:33.491Z,30.77
2022-08-25T15:56:37.372Z,30.62
2022-08-25T15:57:39.035Z,30.78
2022-08-25T15:58:50.086Z,30.76
2022-08-25T15:59:41.652Z,30.47
2022-08-25T16:00:42.467Z,30.65
2022-08-25T16:01:42.560Z,31.01
2022-08-25T16:02:46.332Z,30.33
2022-08-25T16:03:46.141Z,30.31
2022-08-25T16:04:48.952Z,30.43
2022-08-25T16:05:52.285Z,30.25
2022-08-25T16:06:55.877Z,30.28
2022-08-25T16:07:55.271Z,30.45
2022-08-25T16:08:58.658Z,30.32
2022-08-25T16:10:03.582Z,30.39
2022-08-25T16:11:03.502Z,30.18
2022-08-25T16:12:09.077Z,30.28
2022-08-25T16:13:08.925Z,30.87
2022-08-25T16:14:08.261Z,30.87
2022-08-25T16:15:12.521Z,30.48
2022-08-25T16:16:12.186Z,30.49
2022-08-25T16:17:16.160Z,30.52
2022-08-25T16:18:17.049Z,30.64
2022-08-25T16:19:16.396Z,31.54
2022-08-25T16:20:19.247Z,31.4
2022-08-25T16:21:25.984Z,30.85
2022-08-25T16:22:22.803Z,30.85
2022-08-25T16:23:25.611Z,30.73
2022-08-25T16:24:28.498Z,30.8
2022-08-25T16:25:30.104Z,30.92
2022-08-25T16:26:32.906Z,30.75
2022-08-25T16:27:39.331Z,31.27
2022-08-25T16:28:37.515Z,30.55
2022-08-25T16:29:36.873Z,30.38
2022-08-25T16:30:40.072Z,30.44
2022-08-25T16:31:44.014Z,30.25
2022-08-25T16:32:43.986Z,30.09
2022-08-25T16:33:43.900Z,30
2022-08-25T16:34:48.110Z,29.76
2022-08-25T16:35:44.073Z,29.58
2022-08-25T16:36:46.889Z,29.64
2022-08-25T16:37:49.696Z,29.71
2022-08-25T16:38:52.571Z,29.68
2022-08-25T16:39:55.683Z,30.31
2022-08-25T16:41:00.635Z,29.93
2022-08-25T16:42:00.017Z,29.97
2022-08-25T16:43:03.547Z,29.89
2022-08-25T16:44:03.456Z,29.41